sensor_id;sensor_type;location;lat;lon;timestamp;pressure;altitude;pressure_sealevel;temperature;humidity
5455;BME280;2750;49.050;9.250;2023-12-20T00:03:41;98837.75;;;9.19;87.81
5455;BME280;2750;49.050;9.250;2023-12-20T00:08:44;98829.25;;;8.93;87.84
5455;BME280;2750;49.050;9.250;2023-12-20T00:13:45;98840.56;;;9.12;88.59
5455;BME280;2750;49.050;9.250;2023-12-20T00:18:47;98821.59;;;9.34;88.38
5455;BME280;2750;49.050;9.250;2023-12-20T00:23:50;98806.97;;;9.33;89.17
5455;BME280;2750;49.050;9.250;2023-12-20T00:28:51;98809.41;;;9.16;88.93
5455;BME280;2750;49.050;9.250;2023-12-20T00:33:53;98799.94;;;8.71;89.89
5455;BME280;2750;49.050;9.250;2023-12-20T00:38:57;98793.81;;;8.52;90.89
5455;BME280;2750;49.050;9.250;2023-12-20T00:43:59;98792.59;;;8.39;91.95
5455;BME280;2750;49.050;9.250;2023-12-20T00:49:00;98809.22;;;8.32;92.24
5455;BME280;2750;49.050;9.250;2023-12-20T00:54:03;98807.75;;;8.48;92.44
5455;BME280;2750;49.050;9.250;2023-12-20T00:59:05;98798.88;;;8.77;91.77
5455;BME280;2750;49.050;9.250;2023-12-20T01:04:06;98794.44;;;8.80;91.50
5455;BME280;2750;49.050;9.250;2023-12-20T01:09:09;98804.06;;;8.98;90.84
5455;BME280;2750;49.050;9.250;2023-12-20T01:14:11;98801.16;;;9.06;90.46
5455;BME280;2750;49.050;9.250;2023-12-20T01:19:12;98809.28;;;8.97;90.82
5455;BME280;2750;49.050;9.250;2023-12-20T01:24:16;98811.63;;;9.03;90.39
5455;BME280;2750;49.050;9.250;2023-12-20T01:29:18;98801.88;;;9.09;90.03
5455;BME280;2750;49.050;9.250;2023-12-20T01:34:19;98803.81;;;9.04;90.52
5455;BME280;2750;49.050;9.250;2023-12-20T01:39:22;98803.97;;;9.22;89.99
5455;BME280;2750;49.050;9.250;2023-12-20T01:44:24;98801.38;;;9.22;89.59
5455;BME280;2750;49.050;9.250;2023-12-20T01:49:25;98796.81;;;9.06;90.75
5455;BME280;2750;49.050;9.250;2023-12-20T01:54:29;98793.03;;;9.15;91.34
5455;BME280;2750;49.050;9.250;2023-12-20T01:59:30;98794.38;;;9.03;92.73
5455;BME280;2750;49.050;9.250;2023-12-20T02:04:32;98787.84;;;8.27;95.19
5455;BME280;2750;49.050;9.250;2023-12-20T02:09:35;98782.56;;;8.31;96.70
5455;BME280;2750;49.050;9.250;2023-12-20T02:14:38;98789.09;;;7.93;99.46
5455;BME280;2750;49.050;9.250;2023-12-20T02:19:39;98787.66;;;7.85;100.00
5455;BME280;2750;49.050;9.250;2023-12-20T02:24:42;98791.31;;;7.79;99.85
5455;BME280;2750;49.050;9.250;2023-12-20T02:29:43;98778.63;;;7.73;99.88
5455;BME280;2750;49.050;9.250;2023-12-20T02:34:46;98778.03;;;7.65;100.00
5455;BME280;2750;49.050;9.250;2023-12-20T02:39:49;98784.31;;;7.58;100.00
5455;BME280;2750;49.050;9.250;2023-12-20T02:44:51;98782.94;;;7.48;100.00
5455;BME280;2750;49.050;9.250;2023-12-20T02:49:52;98772.34;;;7.31;100.00
5455;BME280;2750;49.050;9.250;2023-12-20T02:54:55;98787.38;;;7.18;100.00
5455;BME280;2750;49.050;9.250;2023-12-20T02:59:57;98785.72;;;7.42;99.74
5455;BME280;2750;49.050;9.250;2023-12-20T03:04:58;98793.78;;;7.33;100.00
5455;BME280;2750;49.050;9.250;2023-12-20T03:10:02;98789.13;;;7.17;100.00
5455;BME280;2750;49.050;9.250;2023-12-20T03:15:04;98795.00;;;7.21;99.87
5455;BME280;2750;49.050;9.250;2023-12-20T03:20:07;98803.06;;;7.38;99.37
5455;BME280;2750;49.050;9.250;2023-12-20T03:25:10;98807.50;;;7.33;99.84
5455;BME280;2750;49.050;9.250;2023-12-20T03:30:12;98809.59;;;7.22;100.00
5455;BME280;2750;49.050;9.250;2023-12-20T03:35:14;98798.25;;;7.28;100.00
5455;BME280;2750;49.050;9.250;2023-12-20T03:40:17;98797.19;;;7.33;99.99
5455;BME280;2750;49.050;9.250;2023-12-20T03:45:18;98799.00;;;7.31;100.00
5455;BME280;2750;49.050;9.250;2023-12-20T03:50:20;98806.78;;;7.30;100.00
5455;BME280;2750;49.050;9.250;2023-12-20T03:55:23;98804.59;;;7.17;100.00
5455;BME280;2750;49.050;9.250;2023-12-20T04:00:24;98809.56;;;7.24;100.00
5455;BME280;2750;49.050;9.250;2023-12-20T04:05:26;98809.59;;;7.22;100.00
5455;BME280;2750;49.050;9.250;2023-12-20T04:10:28;98792.66;;;7.40;100.00
5455;BME280;2750;49.050;9.250;2023-12-20T04:15:30;98786.63;;;7.41;99.84
5455;BME280;2750;49.050;9.250;2023-12-20T04:20:31;98811.25;;;7.51;99.01
5455;BME280;2750;49.050;9.250;2023-12-20T04:25:34;98800.84;;;7.52;99.33
5455;BME280;2750;49.050;9.250;2023-12-20T04:30:36;98823.56;;;7.92;96.95
5455;BME280;2750;49.050;9.250;2023-12-20T04:35:38;98832.47;;;7.84;97.59
5455;BME280;2750;49.050;9.250;2023-12-20T04:40:42;98823.56;;;7.92;97.09
5455;BME280;2750;49.050;9.250;2023-12-20T04:45:44;98828.19;;;8.07;96.29
5455;BME280;2750;49.050;9.250;2023-12-20T04:50:45;98831.47;;;8.12;96.48
5455;BME280;2750;49.050;9.250;2023-12-20T04:55:48;98825.81;;;8.25;96.64
5455;BME280;2750;49.050;9.250;2023-12-20T05:00:50;98833.06;;;8.15;97.09
5455;BME280;2750;49.050;9.250;2023-12-20T05:05:51;98841.22;;;8.04;97.09
5455;BME280;2750;49.050;9.250;2023-12-20T05:10:54;98848.50;;;8.16;96.60
5455;BME280;2750;49.050;9.250;2023-12-20T05:15:56;98852.78;;;8.17;96.91
5455;BME280;2750;49.050;9.250;2023-12-20T05:20:58;98860.88;;;8.08;97.06
5455;BME280;2750;49.050;9.250;2023-12-20T05:26:01;98864.66;;;7.98;98.59
5455;BME280;2750;49.050;9.250;2023-12-20T05:31:02;98870.44;;;7.82;100.00
5455;BME280;2750;49.050;9.250;2023-12-20T05:36:04;98879.66;;;7.89;100.00
5455;BME280;2750;49.050;9.250;2023-12-20T05:41:10;98881.25;;;7.93;100.00
5455;BME280;2750;49.050;9.250;2023-12-20T05:46:12;98894.13;;;7.68;100.00
5455;BME280;2750;49.050;9.250;2023-12-20T05:51:13;98882.13;;;7.92;100.00
5455;BME280;2750;49.050;9.250;2023-12-20T05:56:16;98903.53;;;8.20;100.00
5455;BME280;2750;49.050;9.250;2023-12-20T06:01:18;98912.22;;;8.17;99.94
5455;BME280;2750;49.050;9.250;2023-12-20T06:06:19;98919.72;;;8.00;100.00
5455;BME280;2750;49.050;9.250;2023-12-20T06:11:23;98908.28;;;8.07;100.00
5455;BME280;2750;49.050;9.250;2023-12-20T06:16:25;98909.69;;;7.91;100.00
5455;BME280;2750;49.050;9.250;2023-12-20T06:21:26;98911.69;;;7.83;100.00
5455;BME280;2750;49.050;9.250;2023-12-20T06:26:29;98922.81;;;7.85;100.00
5455;BME280;2750;49.050;9.250;2023-12-20T06:31:31;98927.97;;;7.59;100.00
5455;BME280;2750;49.050;9.250;2023-12-20T06:36:33;98929.28;;;7.72;100.00
5455;BME280;2750;49.050;9.250;2023-12-20T06:41:36;98916.88;;;7.57;100.00
5455;BME280;2750;49.050;9.250;2023-12-20T06:46:37;98935.22;;;7.48;100.00
5455;BME280;2750;49.050;9.250;2023-12-20T06:51:39;98930.75;;;7.79;100.00
5455;BME280;2750;49.050;9.250;2023-12-20T06:56:42;98931.16;;;7.67;100.00
5455;BME280;2750;49.050;9.250;2023-12-20T07:01:47;98943.38;;;7.62;100.00
5455;BME280;2750;49.050;9.250;2023-12-20T07:06:49;98958.44;;;7.48;100.00
5455;BME280;2750;49.050;9.250;2023-12-20T07:11:53;98970.91;;;7.35;100.00
5455;BME280;2750;49.050;9.250;2023-12-20T07:16:55;98969.75;;;7.44;100.00
5455;BME280;2750;49.050;9.250;2023-12-20T07:21:57;98970.06;;;7.35;100.00
5455;BME280;2750;49.050;9.250;2023-12-20T07:27:00;98990.13;;;7.53;100.00
5455;BME280;2750;49.050;9.250;2023-12-20T07:32:02;98992.59;;;7.57;100.00
5455;BME280;2750;49.050;9.250;2023-12-20T07:37:04;99001.03;;;7.62;100.00
5455;BME280;2750;49.050;9.250;2023-12-20T07:42:07;99004.38;;;7.66;100.00
5455;BME280;2750;49.050;9.250;2023-12-20T07:47:08;99000.94;;;7.65;100.00
5455;BME280;2750;49.050;9.250;2023-12-20T07:52:10;99008.81;;;7.61;100.00
5455;BME280;2750;49.050;9.250;2023-12-20T07:57:13;99030.16;;;7.94;98.54
5455;BME280;2750;49.050;9.250;2023-12-20T08:02:14;99027.19;;;7.78;99.20
5455;BME280;2750;49.050;9.250;2023-12-20T08:07:16;99031.44;;;7.81;99.18
5455;BME280;2750;49.050;9.250;2023-12-20T08:12:19;99026.56;;;7.72;98.89
5455;BME280;2750;49.050;9.250;2023-12-20T08:17:20;99051.75;;;7.91;98.47
5455;BME280;2750;49.050;9.250;2023-12-20T08:22:23;99039.72;;;7.90;98.04
5455;BME280;2750;49.050;9.250;2023-12-20T08:27:26;99034.88;;;7.81;97.66
5455;BME280;2750;49.050;9.250;2023-12-20T08:32:28;99037.97;;;7.64;98.20
5455;BME280;2750;49.050;9.250;2023-12-20T08:37:31;99041.63;;;7.57;97.90
5455;BME280;2750;49.050;9.250;2023-12-20T08:42:34;99061.00;;;7.98;94.76
5455;BME280;2750;49.050;9.250;2023-12-20T08:47:36;99066.41;;;8.18;94.47
5455;BME280;2750;49.050;9.250;2023-12-20T08:52:37;99050.50;;;8.57;92.41
5455;BME280;2750;49.050;9.250;2023-12-20T08:57:40;99050.84;;;8.71;91.27
5455;BME280;2750;49.050;9.250;2023-12-20T09:02:41;99048.47;;;8.65;90.21
5455;BME280;2750;49.050;9.250;2023-12-20T09:07:43;99051.25;;;8.59;90.27
5455;BME280;2750;49.050;9.250;2023-12-20T09:12:46;99043.09;;;8.46;89.31
5455;BME280;2750;49.050;9.250;2023-12-20T09:17:48;99042.25;;;8.20;90.58
5455;BME280;2750;49.050;9.250;2023-12-20T09:22:50;99049.78;;;7.99;91.66
5455;BME280;2750;49.050;9.250;2023-12-20T09:27:53;99052.72;;;8.15;91.66
5455;BME280;2750;49.050;9.250;2023-12-20T09:32:54;99054.78;;;8.32;92.09
5455;BME280;2750;49.050;9.250;2023-12-20T09:37:56;99061.13;;;8.22;91.50
5455;BME280;2750;49.050;9.250;2023-12-20T09:43:03;99055.78;;;8.54;90.94
5455;BME280;2750;49.050;9.250;2023-12-20T09:48:06;99054.00;;;8.28;89.63
5455;BME280;2750;49.050;9.250;2023-12-20T09:53:10;99056.66;;;8.27;89.52
5455;BME280;2750;49.050;9.250;2023-12-20T09:58:14;99057.81;;;8.44;87.95
5455;BME280;2750;49.050;9.250;2023-12-20T10:03:16;99061.53;;;8.36;86.09
5455;BME280;2750;49.050;9.250;2023-12-20T10:08:21;99068.88;;;8.22;87.05
5455;BME280;2750;49.050;9.250;2023-12-20T10:13:24;99044.03;;;8.44;85.97
5455;BME280;2750;49.050;9.250;2023-12-20T10:18:25;99051.72;;;8.19;86.92
5455;BME280;2750;49.050;9.250;2023-12-20T10:23:27;99051.88;;;8.14;86.94
5455;BME280;2750;49.050;9.250;2023-12-20T10:28:33;99034.69;;;8.40;86.35
5455;BME280;2750;49.050;9.250;2023-12-20T10:33:35;99050.38;;;8.60;84.56
5455;BME280;2750;49.050;9.250;2023-12-20T10:38:38;99046.38;;;8.76;83.83
5455;BME280;2750;49.050;9.250;2023-12-20T10:43:45;99032.34;;;8.58;84.39
5455;BME280;2750;49.050;9.250;2023-12-20T10:48:48;99039.44;;;8.52;83.05
5455;BME280;2750;49.050;9.250;2023-12-20T10:53:52;99028.56;;;8.67;81.28
5455;BME280;2750;49.050;9.250;2023-12-20T10:58:56;99034.91;;;8.34;82.75
5455;BME280;2750;49.050;9.250;2023-12-20T11:03:59;99029.25;;;8.47;83.01
5455;BME280;2750;49.050;9.250;2023-12-20T11:09:10;98986.72;;;8.05;82.14
5455;BME280;2750;49.050;9.250;2023-12-20T11:14:20;98991.66;;;7.86;82.82
5455;BME280;2750;49.050;9.250;2023-12-20T11:19:24;99009.69;;;8.14;82.14
5455;BME280;2750;49.050;9.250;2023-12-20T11:24:25;99010.94;;;8.02;82.13
5455;BME280;2750;49.050;9.250;2023-12-20T11:29:34;99002.22;;;8.05;82.61
5455;BME280;2750;49.050;9.250;2023-12-20T11:34:36;99020.97;;;8.38;83.73
5455;BME280;2750;49.050;9.250;2023-12-20T11:39:38;99018.81;;;8.98;81.92
5455;BME280;2750;49.050;9.250;2023-12-20T11:44:42;99010.47;;;8.67;79.99
5455;BME280;2750;49.050;9.250;2023-12-20T11:49:46;99002.97;;;9.07;80.96
5455;BME280;2750;49.050;9.250;2023-12-20T11:54:48;98985.84;;;9.27;78.22
5455;BME280;2750;49.050;9.250;2023-12-20T11:59:52;98991.69;;;9.08;80.48
5455;BME280;2750;49.050;9.250;2023-12-20T12:04:54;99001.44;;;9.47;80.31
5455;BME280;2750;49.050;9.250;2023-12-20T12:09:56;98994.69;;;9.21;81.20
5455;BME280;2750;49.050;9.250;2023-12-20T12:14:59;98991.59;;;8.88;81.36
5455;BME280;2750;49.050;9.250;2023-12-20T12:20:02;98994.31;;;8.85;80.63
5455;BME280;2750;49.050;9.250;2023-12-20T12:25:13;98995.75;;;8.44;82.29
5455;BME280;2750;49.050;9.250;2023-12-20T12:30:16;98990.03;;;8.84;80.36
5455;BME280;2750;49.050;9.250;2023-12-20T12:35:18;98989.22;;;9.05;81.43
5455;BME280;2750;49.050;9.250;2023-12-20T12:40:20;98996.03;;;8.61;82.12
5455;BME280;2750;49.050;9.250;2023-12-20T12:45:23;99005.69;;;8.56;81.84
5455;BME280;2750;49.050;9.250;2023-12-20T12:50:25;99002.19;;;8.33;83.29
5455;BME280;2750;49.050;9.250;2023-12-20T12:55:28;98996.31;;;8.77;81.43
5455;BME280;2750;49.050;9.250;2023-12-20T13:00:31;99004.94;;;8.53;82.58
5455;BME280;2750;49.050;9.250;2023-12-20T13:05:33;99007.88;;;8.67;82.82
5455;BME280;2750;49.050;9.250;2023-12-20T13:10:35;99005.63;;;8.58;83.33
5455;BME280;2750;49.050;9.250;2023-12-20T13:15:38;98999.19;;;8.45;83.06
5455;BME280;2750;49.050;9.250;2023-12-20T13:20:40;99011.66;;;8.58;84.04
5455;BME280;2750;49.050;9.250;2023-12-20T13:25:42;98998.00;;;8.02;85.14
5455;BME280;2750;49.050;9.250;2023-12-20T13:30:45;99003.06;;;8.05;86.02
5455;BME280;2750;49.050;9.250;2023-12-20T13:35:46;98994.53;;;8.03;84.96
5455;BME280;2750;49.050;9.250;2023-12-20T13:40:48;98992.84;;;8.02;84.48
5455;BME280;2750;49.050;9.250;2023-12-20T13:45:51;98996.66;;;8.43;84.55
5455;BME280;2750;49.050;9.250;2023-12-20T13:50:52;98991.91;;;8.56;83.32
5455;BME280;2750;49.050;9.250;2023-12-20T13:55:55;98990.06;;;8.35;84.79
5455;BME280;2750;49.050;9.250;2023-12-20T14:00:57;98982.59;;;8.26;85.36
5455;BME280;2750;49.050;9.250;2023-12-20T14:05:59;98951.69;;;8.47;85.82
5455;BME280;2750;49.050;9.250;2023-12-20T14:11:01;98949.75;;;8.29;85.80
5455;BME280;2750;49.050;9.250;2023-12-20T14:16:05;98918.63;;;8.07;87.98
5455;BME280;2750;49.050;9.250;2023-12-20T14:21:06;98942.31;;;8.20;88.65
5455;BME280;2750;49.050;9.250;2023-12-20T14:26:08;98941.28;;;7.99;89.20
5455;BME280;2750;49.050;9.250;2023-12-20T14:31:15;98932.69;;;7.99;89.64
5455;BME280;2750;49.050;9.250;2023-12-20T14:36:17;98946.06;;;7.85;89.91
5455;BME280;2750;49.050;9.250;2023-12-20T14:41:19;98933.44;;;7.76;90.42
5455;BME280;2750;49.050;9.250;2023-12-20T14:46:22;98958.88;;;8.13;90.25
5455;BME280;2750;49.050;9.250;2023-12-20T14:51:23;98951.06;;;8.41;89.73
5455;BME280;2750;49.050;9.250;2023-12-20T14:56:25;98951.72;;;8.71;88.37
5455;BME280;2750;49.050;9.250;2023-12-20T15:01:28;98948.38;;;8.44;87.54
5455;BME280;2750;49.050;9.250;2023-12-20T15:06:31;98954.25;;;8.23;88.56
5455;BME280;2750;49.050;9.250;2023-12-20T15:11:33;98946.06;;;8.10;88.37
5455;BME280;2750;49.050;9.250;2023-12-20T15:16:36;98938.22;;;8.13;88.17
5455;BME280;2750;49.050;9.250;2023-12-20T15:21:38;98925.41;;;8.10;88.02
5455;BME280;2750;49.050;9.250;2023-12-20T15:26:43;98934.28;;;8.28;87.17
5455;BME280;2750;49.050;9.250;2023-12-20T15:31:46;98927.28;;;8.05;88.87
5455;BME280;2750;49.050;9.250;2023-12-20T15:36:48;98918.97;;;8.22;88.36
5455;BME280;2750;49.050;9.250;2023-12-20T15:41:50;98908.00;;;7.90;89.38
5455;BME280;2750;49.050;9.250;2023-12-20T15:46:53;98895.84;;;7.67;90.64
5455;BME280;2750;49.050;9.250;2023-12-20T15:51:55;98908.84;;;7.66;91.39
5455;BME280;2750;49.050;9.250;2023-12-20T15:56:56;98925.81;;;7.73;91.48
5455;BME280;2750;49.050;9.250;2023-12-20T16:01:59;98929.50;;;7.66;91.31
5455;BME280;2750;49.050;9.250;2023-12-20T16:07:01;98929.50;;;7.66;90.46
5455;BME280;2750;49.050;9.250;2023-12-20T16:12:03;98929.66;;;7.86;90.98
5455;BME280;2750;49.050;9.250;2023-12-20T16:17:06;98925.94;;;7.68;91.54
5455;BME280;2750;49.050;9.250;2023-12-20T16:22:07;98919.50;;;7.82;91.06
5455;BME280;2750;49.050;9.250;2023-12-20T16:27:09;98919.50;;;7.82;89.47
5455;BME280;2750;49.050;9.250;2023-12-20T16:32:12;98903.84;;;7.60;90.29
5455;BME280;2750;49.050;9.250;2023-12-20T16:37:13;98920.25;;;7.85;89.98
5455;BME280;2750;49.050;9.250;2023-12-20T16:42:15;98911.38;;;7.92;89.18
5455;BME280;2750;49.050;9.250;2023-12-20T16:47:18;98903.31;;;7.77;89.50
5455;BME280;2750;49.050;9.250;2023-12-20T16:52:20;98904.53;;;7.91;88.47
5455;BME280;2750;49.050;9.250;2023-12-20T16:57:21;98907.91;;;7.67;89.33
5455;BME280;2750;49.050;9.250;2023-12-20T17:02:24;98916.81;;;7.85;89.30
5455;BME280;2750;49.050;9.250;2023-12-20T17:07:25;98928.88;;;7.84;88.88
5455;BME280;2750;49.050;9.250;2023-12-20T17:12:27;98905.28;;;7.68;88.09
5455;BME280;2750;49.050;9.250;2023-12-20T17:17:30;98901.13;;;7.64;88.09
5455;BME280;2750;49.050;9.250;2023-12-20T17:22:32;98907.41;;;7.82;88.03
5455;BME280;2750;49.050;9.250;2023-12-20T17:27:33;98903.75;;;7.89;87.61
5455;BME280;2750;49.050;9.250;2023-12-20T17:32:36;98915.56;;;7.96;87.29
5455;BME280;2750;49.050;9.250;2023-12-20T17:37:39;98909.06;;;8.09;86.88
5455;BME280;2750;49.050;9.250;2023-12-20T17:42:41;98912.63;;;8.05;86.66
5455;BME280;2750;49.050;9.250;2023-12-20T17:47:44;98913.44;;;8.07;86.69
5455;BME280;2750;49.050;9.250;2023-12-20T17:52:45;98910.47;;;8.18;85.98
5455;BME280;2750;49.050;9.250;2023-12-20T17:57:47;98918.00;;;8.01;86.63
5455;BME280;2750;49.050;9.250;2023-12-20T18:02:50;98926.25;;;8.10;87.24
5455;BME280;2750;49.050;9.250;2023-12-20T18:07:52;98922.25;;;8.27;86.58
5455;BME280;2750;49.050;9.250;2023-12-20T18:12:54;98911.03;;;8.28;86.63
5455;BME280;2750;49.050;9.250;2023-12-20T18:17:57;98916.03;;;8.32;86.24
5455;BME280;2750;49.050;9.250;2023-12-20T18:22:59;98878.59;;;8.19;85.81
5455;BME280;2750;49.050;9.250;2023-12-20T18:28:00;98899.88;;;8.26;85.14
5455;BME280;2750;49.050;9.250;2023-12-20T18:33:03;98898.09;;;8.28;85.05
5455;BME280;2750;49.050;9.250;2023-12-20T18:38:05;98884.00;;;8.36;85.24
5455;BME280;2750;49.050;9.250;2023-12-20T18:43:06;98887.91;;;8.48;83.68
5455;BME280;2750;49.050;9.250;2023-12-20T18:48:09;98888.81;;;8.47;84.69
5455;BME280;2750;49.050;9.250;2023-12-20T18:53:11;98885.84;;;9.02;82.76
5455;BME280;2750;49.050;9.250;2023-12-20T18:58:12;98894.16;;;9.10;81.76
5455;BME280;2750;49.050;9.250;2023-12-20T19:03:15;98900.69;;;8.97;82.73
5455;BME280;2750;49.050;9.250;2023-12-20T19:08:17;98888.63;;;8.75;83.63
5455;BME280;2750;49.050;9.250;2023-12-20T19:13:19;98884.44;;;8.94;82.43
5455;BME280;2750;49.050;9.250;2023-12-20T19:18:22;98878.22;;;8.30;84.07
5455;BME280;2750;49.050;9.250;2023-12-20T19:23:23;98872.50;;;8.68;83.46
5455;BME280;2750;49.050;9.250;2023-12-20T19:28:25;98854.84;;;8.56;83.99
5455;BME280;2750;49.050;9.250;2023-12-20T19:33:28;98860.09;;;8.54;83.38
5455;BME280;2750;49.050;9.250;2023-12-20T19:38:30;98856.53;;;8.80;84.13
5455;BME280;2750;49.050;9.250;2023-12-20T19:43:31;98862.06;;;9.15;82.72
5455;BME280;2750;49.050;9.250;2023-12-20T19:48:34;98854.53;;;9.08;82.68
5455;BME280;2750;49.050;9.250;2023-12-20T19:53:36;98850.19;;;9.09;82.42
5455;BME280;2750;49.050;9.250;2023-12-20T19:58:38;98829.56;;;9.07;82.99
5455;BME280;2750;49.050;9.250;2023-12-20T20:03:41;98813.78;;;9.13;81.85
5455;BME280;2750;49.050;9.250;2023-12-20T20:08:42;98810.69;;;8.84;84.54
5455;BME280;2750;49.050;9.250;2023-12-20T20:13:44;98807.16;;;8.63;83.37
5455;BME280;2750;49.050;9.250;2023-12-20T20:18:47;98815.84;;;8.62;83.76
5455;BME280;2750;49.050;9.250;2023-12-20T20:23:48;98823.59;;;9.05;82.43
5455;BME280;2750;49.050;9.250;2023-12-20T20:28:50;98811.28;;;8.90;83.76
5455;BME280;2750;49.050;9.250;2023-12-20T20:33:52;98812.72;;;8.97;83.49
5455;BME280;2750;49.050;9.250;2023-12-20T20:38:54;98812.94;;;9.13;83.05
5455;BME280;2750;49.050;9.250;2023-12-20T20:43:56;98828.34;;;9.16;82.74
5455;BME280;2750;49.050;9.250;2023-12-20T20:48:59;98820.06;;;8.86;84.18
5455;BME280;2750;49.050;9.250;2023-12-20T20:54:00;98813.22;;;8.85;84.25
5455;BME280;2750;49.050;9.250;2023-12-20T20:59:03;98812.22;;;9.09;84.33
5455;BME280;2750;49.050;9.250;2023-12-20T21:04:06;98807.41;;;8.79;84.17
5455;BME280;2750;49.050;9.250;2023-12-20T21:09:08;98796.81;;;8.63;85.88
5455;BME280;2750;49.050;9.250;2023-12-20T21:14:10;98766.47;;;8.68;85.45
5455;BME280;2750;49.050;9.250;2023-12-20T21:19:13;98774.03;;;8.28;86.97
5455;BME280;2750;49.050;9.250;2023-12-20T21:24:14;98767.91;;;8.75;84.79
5455;BME280;2750;49.050;9.250;2023-12-20T21:29:16;98769.34;;;8.82;84.62
5455;BME280;2750;49.050;9.250;2023-12-20T21:34:19;98764.06;;;9.27;82.96
5455;BME280;2750;49.050;9.250;2023-12-20T21:39:20;98757.66;;;8.94;83.58
5455;BME280;2750;49.050;9.250;2023-12-20T21:44:24;98749.66;;;8.78;84.48
5455;BME280;2750;49.050;9.250;2023-12-20T21:49:27;98738.19;;;9.05;82.59
5455;BME280;2750;49.050;9.250;2023-12-20T21:54:29;98733.69;;;9.31;82.94
5455;BME280;2750;49.050;9.250;2023-12-20T21:59:30;98730.00;;;9.36;82.17
5455;BME280;2750;49.050;9.250;2023-12-20T22:04:33;98717.28;;;8.90;82.94
5455;BME280;2750;49.050;9.250;2023-12-20T22:09:35;98708.50;;;8.94;82.60
5455;BME280;2750;49.050;9.250;2023-12-20T22:14:37;98701.19;;;8.83;83.42
5455;BME280;2750;49.050;9.250;2023-12-20T22:19:40;98700.91;;;8.69;84.37
5455;BME280;2750;49.050;9.250;2023-12-20T22:24:41;98704.50;;;9.07;82.76
5455;BME280;2750;49.050;9.250;2023-12-20T22:29:43;98688.50;;;8.97;82.89
5455;BME280;2750;49.050;9.250;2023-12-20T22:34:48;98693.44;;;9.03;82.68
5455;BME280;2750;49.050;9.250;2023-12-20T22:39:49;98693.00;;;8.72;83.56
5455;BME280;2750;49.050;9.250;2023-12-20T22:44:51;98683.78;;;8.45;84.41
5455;BME280;2750;49.050;9.250;2023-12-20T22:49:56;98682.34;;;8.38;85.01
5455;BME280;2750;49.050;9.250;2023-12-20T22:54:57;98684.63;;;8.45;83.23
5455;BME280;2750;49.050;9.250;2023-12-20T22:59:59;98678.69;;;8.85;82.39
5455;BME280;2750;49.050;9.250;2023-12-20T23:05:03;98661.91;;;8.94;83.28
5455;BME280;2750;49.050;9.250;2023-12-20T23:10:06;98654.41;;;8.68;83.36
5455;BME280;2750;49.050;9.250;2023-12-20T23:15:09;98644.47;;;8.58;84.63
5455;BME280;2750;49.050;9.250;2023-12-20T23:20:11;98630.31;;;8.45;85.45
5455;BME280;2750;49.050;9.250;2023-12-20T23:25:13;98606.34;;;8.42;85.25
5455;BME280;2750;49.050;9.250;2023-12-20T23:30:15;98598.41;;;8.46;85.33
5455;BME280;2750;49.050;9.250;2023-12-20T23:35:18;98579.66;;;8.20;85.59
5455;BME280;2750;49.050;9.250;2023-12-20T23:40:19;98579.78;;;8.38;85.49
5455;BME280;2750;49.050;9.250;2023-12-20T23:45:21;98567.94;;;8.33;85.84
5455;BME280;2750;49.050;9.250;2023-12-20T23:50:24;98564.22;;;8.60;84.53
5455;BME280;2750;49.050;9.250;2023-12-20T23:55:25;98555.56;;;8.61;85.34
